Check out our new PWSWeather beta!
PWSweather.com
Personal Weather Stations
Station Observations
URBANDALE
Westwind Acres And Meredith Hills, Urbandale, IA 50322

Westwind Acres And Meredith HillsUrbandale, IA 50322

Lat: 41.643, Lon: -93.709

Elevation: 928

Station Type:

http://urbandaleweather.com

High Low Average
Temperature 28.8°F-1.8°C 19.9°F-6.7°C 23.9°F-4.5°C
Dew Point 20.3°F-6.5°C 11.7°F-11.3°C 14.3°F-9.8°C
Winds 4.9 mph 7.9 kmh Calm Calm 3.0 mph SE4.8 kmh SE
Wind Gusts 15.0 mph24.1 kmh 2.0 mph3.2 kmh 8.0 mph12.9 kmh
Humidity 73% 56% 66%
Pressure 30.23 in1023.7 mb 29.92 in1013.2 mb -
Precipitation 0.00 in0.0 mm - -
Hour Temp Dew Point Humidity Winds Wind Gusts Pressure Precip Precip Rate Daily Precip Total
12:02 AM 28.8°F-1.8°C 20.3°F-6.5°C 70% 4.0 mph N6.4 kmh N 11.0 mph17.7 kmh 29.93 in1013.5 mb 0.00 in0.0 mm 0.00 in0.0 mm 0.00 in0.0 mm
12:07 AM 28.8°F-1.8°C 20.3°F-6.5°C 70% 4.0 mph NNW6.4 kmh NNW 10.1 mph16.3 kmh 29.92 in1013.2 mb 0.00 in0.0 mm 0.00 in0.0 mm 0.00 in0.0 mm
12:12 AM 28.6°F-1.9°C 20.1°F-6.6°C 70% 4.0 mph NNE6.4 kmh NNE 13.0 mph20.9 kmh 29.92 in1013.2 mb 0.00 in0.0 mm 0.00 in0.0 mm 0.00 in0.0 mm
12:17 AM 28.6°F-1.9°C 20.1°F-6.6°C 70% 4.0 mph N6.4 kmh N 8.9 mph14.3 kmh 29.92 in1013.2 mb 0.00 in0.0 mm 0.00 in0.0 mm 0.00 in0.0 mm
12:22 AM 28.6°F-1.9°C 20.1°F-6.6°C 70% 4.0 mph NE6.4 kmh NE 10.1 mph16.3 kmh 29.93 in1013.5 mb 0.00 in0.0 mm 0.00 in0.0 mm 0.00 in0.0 mm
12:27 AM 28.6°F-1.9°C 19.8°F-6.8°C 69% 4.0 mph NE6.4 kmh NE 8.9 mph14.3 kmh 29.93 in1013.5 mb 0.00 in0.0 mm 0.00 in0.0 mm 0.00 in0.0 mm
12:32 AM 28.4°F-2.0°C 19.9°F-6.7°C 70% 2.9 mph NE4.7 kmh NE 8.1 mph13.0 kmh 29.93 in1013.5 mb 0.00 in0.0 mm 0.00 in0.0 mm 0.00 in0.0 mm
12:38 AM 28.4°F-2.0°C 19.9°F-6.7°C 70% 2.0 mph NNE3.2 kmh NNE 11.0 mph17.7 kmh 29.93 in1013.5 mb 0.00 in0.0 mm 0.00 in0.0 mm 0.00 in0.0 mm
12:43 AM 28.4°F-2.0°C 20.1°F-6.6°C 71% 2.9 mph NNE4.7 kmh NNE 10.1 mph16.3 kmh 29.93 in1013.5 mb 0.00 in0.0 mm 0.00 in0.0 mm 0.00 in0.0 mm
12:48 AM 28.2°F-2.1°C 20.1°F-6.6°C 71% 2.9 mph NE4.7 kmh NE 10.1 mph16.3 kmh 29.94 in1013.9 mb 0.00 in0.0 mm 0.00 in0.0 mm 0.00 in0.0 mm
12:53 AM 28.2°F-2.1°C 19.8°F-6.8°C 70% 2.9 mph NNE4.7 kmh NNE 8.0 mph12.9 kmh 29.94 in1013.9 mb 0.00 in0.0 mm 0.00 in0.0 mm 0.00 in0.0 mm
12:58 AM 28.2°F-2.1°C 20.1°F-6.6°C 71% 2.9 mph NNE4.7 kmh NNE 8.9 mph14.3 kmh 29.94 in1013.9 mb 0.00 in0.0 mm 0.00 in0.0 mm 0.00 in0.0 mm
01:03 AM 28.0°F-2.2°C 19.6°F-6.9°C 70% 2.9 mph N4.7 kmh N 8.9 mph14.3 kmh 29.94 in1013.9 mb 0.00 in0.0 mm 0.00 in0.0 mm 0.00 in0.0 mm
01:08 AM 28.0°F-2.2°C 19.6°F-6.9°C 70% 4.0 mph N6.4 kmh N 8.9 mph14.3 kmh 29.94 in1013.9 mb 0.00 in0.0 mm 0.00 in0.0 mm 0.00 in0.0 mm
01:13 AM 27.9°F-2.3°C 19.4°F-7.0°C 70% 2.9 mph NE4.7 kmh NE 8.9 mph14.3 kmh 29.95 in1014.2 mb 0.00 in0.0 mm 0.00 in0.0 mm 0.00 in0.0 mm
01:18 AM 27.9°F-2.3°C 19.4°F-7.0°C 70% 2.9 mph N4.7 kmh N 8.9 mph14.3 kmh 29.95 in1014.2 mb 0.00 in0.0 mm 0.00 in0.0 mm 0.00 in0.0 mm
01:23 AM 27.7°F-2.4°C 19.2°F-7.1°C 70% 2.9 mph NE4.7 kmh NE 10.0 mph16.1 kmh 29.96 in1014.6 mb 0.00 in0.0 mm 0.00 in0.0 mm 0.00 in0.0 mm
01:28 AM 27.7°F-2.4°C 19.6°F-6.9°C 71% 2.9 mph NE4.7 kmh NE 6.0 mph9.7 kmh 29.95 in1014.2 mb 0.00 in0.0 mm 0.00 in0.0 mm 0.00 in0.0 mm
01:33 AM 27.7°F-2.4°C 19.6°F-6.9°C 71% 2.0 mph N3.2 kmh N 10.0 mph16.1 kmh 29.95 in1014.2 mb 0.00 in0.0 mm 0.00 in0.0 mm 0.00 in0.0 mm
01:38 AM 27.5°F-2.5°C 19.4°F-7.0°C 71% 2.9 mph N4.7 kmh N 6.9 mph11.1 kmh 29.95 in1014.2 mb 0.00 in0.0 mm 0.00 in0.0 mm 0.00 in0.0 mm
01:43 AM 27.3°F-2.6°C 19.2°F-7.1°C 71% 2.9 mph NNE4.7 kmh NNE 8.1 mph13.0 kmh 29.95 in1014.2 mb 0.00 in0.0 mm 0.00 in0.0 mm 0.00 in0.0 mm
01:48 AM 27.3°F-2.6°C 19.6°F-6.9°C 72% 2.0 mph NE3.2 kmh NE 6.0 mph9.7 kmh 29.96 in1014.6 mb 0.00 in0.0 mm 0.00 in0.0 mm 0.00 in0.0 mm
01:53 AM 27.1°F-2.7°C 19.0°F-7.2°C 71% 2.0 mph NNE3.2 kmh NNE 10.1 mph16.3 kmh 29.96 in1014.6 mb 0.00 in0.0 mm 0.00 in0.0 mm 0.00 in0.0 mm
01:58 AM 27.1°F-2.7°C 19.0°F-7.2°C 71% 2.9 mph N4.7 kmh N 8.9 mph14.3 kmh 29.96 in1014.6 mb 0.00 in0.0 mm 0.00 in0.0 mm 0.00 in0.0 mm
02:03 AM 27.1°F-2.7°C 19.0°F-7.2°C 71% 2.9 mph N4.7 kmh N 8.1 mph13.0 kmh 29.96 in1014.6 mb 0.00 in0.0 mm 0.00 in0.0 mm 0.00 in0.0 mm
02:08 AM 27.0°F-2.8°C 18.5°F-7.5°C 70% 2.9 mph NNE4.7 kmh NNE 8.1 mph13.0 kmh 29.96 in1014.6 mb 0.00 in0.0 mm 0.00 in0.0 mm 0.00 in0.0 mm
02:13 AM 27.0°F-2.8°C 18.5°F-7.5°C 70% 2.9 mph NE4.7 kmh NE 8.1 mph13.0 kmh 29.97 in1014.9 mb 0.00 in0.0 mm 0.00 in0.0 mm 0.00 in0.0 mm
02:18 AM 27.0°F-2.8°C 18.5°F-7.5°C 70% 2.9 mph NE4.7 kmh NE 6.0 mph9.7 kmh 29.97 in1014.9 mb 0.00 in0.0 mm 0.00 in0.0 mm 0.00 in0.0 mm
02:23 AM 27.0°F-2.8°C 18.9°F-7.3°C 71% 2.0 mph NNW3.2 kmh NNW 6.0 mph9.7 kmh 29.97 in1014.9 mb 0.00 in0.0 mm 0.00 in0.0 mm 0.00 in0.0 mm
02:28 AM 26.8°F-2.9°C 18.3°F-7.6°C 70% 2.0 mph NNE3.2 kmh NNE 6.9 mph11.1 kmh 29.97 in1014.9 mb 0.00 in0.0 mm 0.00 in0.0 mm 0.00 in0.0 mm
02:33 AM 26.8°F-2.9°C 18.7°F-7.4°C 71% 2.0 mph N3.2 kmh N 4.0 mph6.4 kmh 29.97 in1014.9 mb 0.00 in0.0 mm 0.00 in0.0 mm 0.00 in0.0 mm
02:38 AM 26.6°F-3.0°C 18.5°F-7.5°C 71% 2.0 mph N3.2 kmh N 8.1 mph13.0 kmh 29.97 in1014.9 mb 0.00 in0.0 mm 0.00 in0.0 mm 0.00 in0.0 mm
02:43 AM 26.4°F-3.1°C 18.3°F-7.6°C 71% 2.9 mph NNE4.7 kmh NNE 10.1 mph16.3 kmh 29.97 in1014.9 mb 0.00 in0.0 mm 0.00 in0.0 mm 0.00 in0.0 mm
02:48 AM 26.2°F-3.2°C 17.8°F-7.9°C 70% 4.0 mph NNE6.4 kmh NNE 10.1 mph16.3 kmh 29.97 in1014.9 mb 0.00 in0.0 mm 0.00 in0.0 mm 0.00 in0.0 mm
02:53 AM 26.1°F-3.3°C 18.0°F-7.8°C 71% 2.9 mph N4.7 kmh N 8.9 mph14.3 kmh 29.97 in1014.9 mb 0.00 in0.0 mm 0.00 in0.0 mm 0.00 in0.0 mm
02:58 AM 26.1°F-3.3°C 18.0°F-7.8°C 71% 2.9 mph NNW4.7 kmh NNW 8.1 mph13.0 kmh 29.97 in1014.9 mb 0.00 in0.0 mm 0.00 in0.0 mm 0.00 in0.0 mm
03:03 AM 26.1°F-3.3°C 18.0°F-7.8°C 71% 2.9 mph NE4.7 kmh NE 6.0 mph9.7 kmh 29.98 in1015.2 mb 0.00 in0.0 mm 0.00 in0.0 mm 0.00 in0.0 mm
03:08 AM 26.1°F-3.3°C 18.0°F-7.8°C 71% 2.0 mph N3.2 kmh N 6.9 mph11.1 kmh 29.98 in1015.2 mb 0.00 in0.0 mm 0.00 in0.0 mm 0.00 in0.0 mm
03:13 AM 25.9°F-3.4°C 17.8°F-7.9°C 71% 2.9 mph N4.7 kmh N 10.1 mph16.3 kmh 29.98 in1015.2 mb 0.00 in0.0 mm 0.00 in0.0 mm 0.00 in0.0 mm
03:18 AM 25.9°F-3.4°C 17.8°F-7.9°C 71% 2.9 mph NW4.7 kmh NW 6.0 mph9.7 kmh 29.98 in1015.2 mb 0.00 in0.0 mm 0.00 in0.0 mm 0.00 in0.0 mm
03:23 AM 25.9°F-3.4°C 17.8°F-7.9°C 71% 2.9 mph N4.7 kmh N 8.1 mph13.0 kmh 29.98 in1015.2 mb 0.00 in0.0 mm 0.00 in0.0 mm 0.00 in0.0 mm
03:28 AM 25.7°F-3.5°C 17.6°F-8.0°C 71% 2.9 mph N4.7 kmh N 9.0 mph14.5 kmh 29.98 in1015.2 mb 0.00 in0.0 mm 0.00 in0.0 mm 0.00 in0.0 mm
03:33 AM 25.5°F-3.6°C 17.4°F-8.1°C 71% 2.9 mph NW4.7 kmh NW 11.0 mph17.7 kmh 29.98 in1015.2 mb 0.00 in0.0 mm 0.00 in0.0 mm 0.00 in0.0 mm
03:38 AM 25.5°F-3.6°C 17.4°F-8.1°C 71% 2.9 mph ENE4.7 kmh ENE 8.9 mph14.3 kmh 29.99 in1015.6 mb 0.00 in0.0 mm 0.00 in0.0 mm 0.00 in0.0 mm
03:43 AM 25.5°F-3.6°C 17.4°F-8.1°C 71% 2.0 mph NNE3.2 kmh NNE 4.0 mph6.4 kmh 30.00 in1015.9 mb 0.00 in0.0 mm 0.00 in0.0 mm 0.00 in0.0 mm
03:48 AM 25.5°F-3.6°C 17.4°F-8.1°C 71% 2.0 mph NW3.2 kmh NW 10.1 mph16.3 kmh 30.00 in1015.9 mb 0.00 in0.0 mm 0.00 in0.0 mm 0.00 in0.0 mm
03:53 AM 25.5°F-3.6°C 17.1°F-8.3°C 70% 4.0 mph NNE6.4 kmh NNE 11.0 mph17.7 kmh 30.00 in1015.9 mb 0.00 in0.0 mm 0.00 in0.0 mm 0.00 in0.0 mm
03:58 AM 25.3°F-3.7°C 17.2°F-8.2°C 71% 2.0 mph NNW3.2 kmh NNW 6.0 mph9.7 kmh 30.01 in1016.3 mb 0.00 in0.0 mm 0.00 in0.0 mm 0.00 in0.0 mm
04:03 AM 25.3°F-3.7°C 16.9°F-8.4°C 70% 2.9 mph NE4.7 kmh NE 12.0 mph19.3 kmh 30.01 in1016.3 mb 0.00 in0.0 mm 0.00 in0.0 mm 0.00 in0.0 mm
04:08 AM 25.2°F-3.8°C 16.7°F-8.5°C 70% 4.0 mph NW6.4 kmh NW 6.9 mph11.1 kmh 30.01 in1016.3 mb 0.00 in0.0 mm 0.00 in0.0 mm 0.00 in0.0 mm
04:13 AM 25.2°F-3.8°C 16.7°F-8.5°C 70% 2.9 mph NNE4.7 kmh NNE 8.0 mph12.9 kmh 30.02 in1016.6 mb 0.00 in0.0 mm 0.00 in0.0 mm 0.00 in0.0 mm
04:18 AM 25.2°F-3.8°C 16.7°F-8.5°C 70% 2.9 mph NW4.7 kmh NW 13.0 mph20.9 kmh 30.01 in1016.3 mb 0.00 in0.0 mm 0.00 in0.0 mm 0.00 in0.0 mm
04:23 AM 25.0°F-3.9°C 16.3°F-8.7°C 69% 2.9 mph N4.7 kmh N 11.0 mph17.7 kmh 30.01 in1016.3 mb 0.00 in0.0 mm 0.00 in0.0 mm 0.00 in0.0 mm
04:28 AM 25.0°F-3.9°C 16.5°F-8.6°C 70% 2.9 mph NNE4.7 kmh NNE 6.9 mph11.1 kmh 30.01 in1016.3 mb 0.00 in0.0 mm 0.00 in0.0 mm 0.00 in0.0 mm
04:33 AM 25.0°F-3.9°C 16.9°F-8.4°C 71% 2.0 mph NE3.2 kmh NE 8.1 mph13.0 kmh 30.01 in1016.3 mb 0.00 in0.0 mm 0.00 in0.0 mm 0.00 in0.0 mm
04:38 AM 24.6°F-4.1°C 16.2°F-8.8°C 70% 2.9 mph NE4.7 kmh NE 8.9 mph14.3 kmh 30.01 in1016.3 mb 0.00 in0.0 mm 0.00 in0.0 mm 0.00 in0.0 mm
04:43 AM 24.6°F-4.1°C 16.2°F-8.8°C 70% 4.0 mph NE6.4 kmh NE 10.1 mph16.3 kmh 30.01 in1016.3 mb 0.00 in0.0 mm 0.00 in0.0 mm 0.00 in0.0 mm
04:48 AM 24.4°F-4.2°C 16.0°F-8.9°C 70% 4.0 mph NNE6.4 kmh NNE 8.9 mph14.3 kmh 30.00 in1015.9 mb 0.00 in0.0 mm 0.00 in0.0 mm 0.00 in0.0 mm
04:53 AM 24.4°F-4.2°C 16.3°F-8.7°C 71% 2.9 mph N4.7 kmh N 8.1 mph13.0 kmh 30.00 in1015.9 mb 0.00 in0.0 mm 0.00 in0.0 mm 0.00 in0.0 mm
04:58 AM 24.3°F-4.3°C 16.2°F-8.8°C 71% 4.0 mph NNE6.4 kmh NNE 8.1 mph13.0 kmh 30.00 in1015.9 mb 0.00 in0.0 mm 0.00 in0.0 mm 0.00 in0.0 mm
05:03 AM 24.1°F-4.4°C 16.0°F-8.9°C 71% 2.9 mph NE4.7 kmh NE 6.0 mph9.7 kmh 30.00 in1015.9 mb 0.00 in0.0 mm 0.00 in0.0 mm 0.00 in0.0 mm
05:08 AM 24.1°F-4.4°C 16.0°F-8.9°C 71% 2.0 mph E3.2 kmh E 11.0 mph17.7 kmh 30.01 in1016.3 mb 0.00 in0.0 mm 0.00 in0.0 mm 0.00 in0.0 mm
05:13 AM 23.9°F-4.5°C 15.8°F-9.0°C 71% 2.0 mph NNW3.2 kmh NNW 10.1 mph16.3 kmh 30.01 in1016.3 mb 0.00 in0.0 mm 0.00 in0.0 mm 0.00 in0.0 mm
05:18 AM 23.7°F-4.6°C 15.6°F-9.1°C 71% 2.0 mph NNE3.2 kmh NNE 6.9 mph11.1 kmh 30.01 in1016.3 mb 0.00 in0.0 mm 0.00 in0.0 mm 0.00 in0.0 mm
05:23 AM 23.7°F-4.6°C 16.0°F-8.9°C 72% 2.0 mph N3.2 kmh N 6.0 mph9.7 kmh 30.01 in1016.3 mb 0.00 in0.0 mm 0.00 in0.0 mm 0.00 in0.0 mm
05:28 AM 23.5°F-4.7°C 15.4°F-9.2°C 71% 2.9 mph NE4.7 kmh NE 8.1 mph13.0 kmh 30.00 in1015.9 mb 0.00 in0.0 mm 0.00 in0.0 mm 0.00 in0.0 mm
05:33 AM 23.5°F-4.7°C 15.8°F-9.0°C 72% 2.9 mph NE4.7 kmh NE 10.1 mph16.3 kmh 30.00 in1015.9 mb 0.00 in0.0 mm 0.00 in0.0 mm 0.00 in0.0 mm
05:38 AM 23.4°F-4.8°C 15.6°F-9.1°C 72% 2.9 mph NE4.7 kmh NE 6.9 mph11.1 kmh 30.01 in1016.3 mb 0.00 in0.0 mm 0.00 in0.0 mm 0.00 in0.0 mm
05:43 AM 23.2°F-4.9°C 15.4°F-9.2°C 72% 2.9 mph NNE4.7 kmh NNE 8.0 mph12.9 kmh 30.01 in1016.3 mb 0.00 in0.0 mm 0.00 in0.0 mm 0.00 in0.0 mm
05:48 AM 22.8°F-5.1°C 15.4°F-9.2°C 73% 2.0 mph N3.2 kmh N 6.9 mph11.1 kmh 30.01 in1016.3 mb 0.00 in0.0 mm 0.00 in0.0 mm 0.00 in0.0 mm
05:53 AM 22.8°F-5.1°C 15.4°F-9.2°C 73% 2.9 mph NNE4.7 kmh NNE 11.0 mph17.7 kmh 30.01 in1016.3 mb 0.00 in0.0 mm 0.00 in0.0 mm 0.00 in0.0 mm
05:58 AM 22.6°F-5.2°C 15.3°F-9.3°C 73% 2.9 mph N4.7 kmh N 6.0 mph9.7 kmh 30.02 in1016.6 mb 0.00 in0.0 mm 0.00 in0.0 mm 0.00 in0.0 mm
06:03 AM 22.5°F-5.3°C 15.1°F-9.4°C 73% 2.0 mph N3.2 kmh N 8.1 mph13.0 kmh 30.02 in1016.6 mb 0.00 in0.0 mm 0.00 in0.0 mm 0.00 in0.0 mm
06:08 AM 22.5°F-5.3°C 15.1°F-9.4°C 73% 2.0 mph NNW3.2 kmh NNW 12.1 mph19.5 kmh 30.03 in1016.9 mb 0.00 in0.0 mm 0.00 in0.0 mm 0.00 in0.0 mm
06:13 AM 22.3°F-5.4°C 14.9°F-9.5°C 73% 2.9 mph NNE4.7 kmh NNE 8.1 mph13.0 kmh 30.04 in1017.3 mb 0.00 in0.0 mm 0.00 in0.0 mm 0.00 in0.0 mm
06:18 AM 22.3°F-5.4°C 14.9°F-9.5°C 73% 2.9 mph NNE4.7 kmh NNE 8.9 mph14.3 kmh 30.05 in1017.6 mb 0.00 in0.0 mm 0.00 in0.0 mm 0.00 in0.0 mm
06:23 AM 22.3°F-5.4°C 14.7°F-9.6°C 72% 2.9 mph N4.7 kmh N 11.0 mph17.7 kmh 30.05 in1017.6 mb 0.00 in0.0 mm 0.00 in0.0 mm 0.00 in0.0 mm
06:28 AM 22.3°F-5.4°C 14.7°F-9.6°C 72% 2.9 mph NW4.7 kmh NW 8.9 mph14.3 kmh 30.06 in1017.9 mb 0.00 in0.0 mm 0.00 in0.0 mm 0.00 in0.0 mm
06:33 AM 22.3°F-5.4°C 14.7°F-9.6°C 72% 4.0 mph WNW6.4 kmh WNW 8.1 mph13.0 kmh 30.05 in1017.6 mb 0.00 in0.0 mm 0.00 in0.0 mm 0.00 in0.0 mm
06:38 AM 22.1°F-5.5°C 14.5°F-9.7°C 72% 4.0 mph NE6.4 kmh NE 8.9 mph14.3 kmh 30.05 in1017.6 mb 0.00 in0.0 mm 0.00 in0.0 mm 0.00 in0.0 mm
06:43 AM 21.9°F-5.6°C 14.4°F-9.8°C 72% 2.9 mph N4.7 kmh N 10.1 mph16.3 kmh 30.05 in1017.6 mb 0.00 in0.0 mm 0.00 in0.0 mm 0.00 in0.0 mm
06:48 AM 21.9°F-5.6°C 14.4°F-9.8°C 72% 4.0 mph NNE6.4 kmh NNE 8.9 mph14.3 kmh 30.04 in1017.3 mb 0.00 in0.0 mm 0.00 in0.0 mm 0.00 in0.0 mm
06:53 AM 21.9°F-5.6°C 14.4°F-9.8°C 72% 2.9 mph N4.7 kmh N 6.9 mph11.1 kmh 30.05 in1017.6 mb 0.00 in0.0 mm 0.00 in0.0 mm 0.00 in0.0 mm
06:58 AM 21.9°F-5.6°C 14.4°F-9.8°C 72% 2.0 mph SW3.2 kmh SW 6.9 mph11.1 kmh 30.06 in1017.9 mb 0.00 in0.0 mm 0.00 in0.0 mm 0.00 in0.0 mm
07:03 AM 21.7°F-5.7°C 14.2°F-9.9°C 72% 2.0 mph N3.2 kmh N 8.1 mph13.0 kmh 30.07 in1018.3 mb 0.00 in0.0 mm 0.00 in0.0 mm 0.00 in0.0 mm
07:08 AM 21.7°F-5.7°C 13.8°F-10.1°C 71% 2.9 mph N4.7 kmh N 6.9 mph11.1 kmh 30.07 in1018.3 mb 0.00 in0.0 mm 0.00 in0.0 mm 0.00 in0.0 mm
07:13 AM 21.9°F-5.6°C 14.0°F-10.0°C 71% 2.9 mph NE4.7 kmh NE 8.1 mph13.0 kmh 30.07 in1018.3 mb 0.00 in0.0 mm 0.00 in0.0 mm 0.00 in0.0 mm
07:18 AM 21.7°F-5.7°C 13.8°F-10.1°C 71% 2.9 mph NNW4.7 kmh NNW 8.1 mph13.0 kmh 30.07 in1018.3 mb 0.00 in0.0 mm 0.00 in0.0 mm 0.00 in0.0 mm
07:23 AM 21.7°F-5.7°C 13.8°F-10.1°C 71% 2.9 mph NNE4.7 kmh NNE 6.9 mph11.1 kmh 30.07 in1018.3 mb 0.00 in0.0 mm 0.00 in0.0 mm 0.00 in0.0 mm
07:28 AM 21.6°F-5.8°C 14.0°F-10.0°C 72% 2.9 mph NNE4.7 kmh NNE 6.0 mph9.7 kmh 30.07 in1018.3 mb 0.00 in0.0 mm 0.00 in0.0 mm 0.00 in0.0 mm
07:33 AM 21.6°F-5.8°C 14.0°F-10.0°C 72% 2.0 mph NW3.2 kmh NW 9.0 mph14.5 kmh 30.08 in1018.6 mb 0.00 in0.0 mm 0.00 in0.0 mm 0.00 in0.0 mm
07:38 AM 21.6°F-5.8°C 14.0°F-10.0°C 72% 2.9 mph N4.7 kmh N 8.1 mph13.0 kmh 30.09 in1019.0 mb 0.00 in0.0 mm 0.00 in0.0 mm 0.00 in0.0 mm
07:43 AM 21.6°F-5.8°C 13.6°F-10.2°C 71% 2.9 mph NNE4.7 kmh NNE 8.9 mph14.3 kmh 30.10 in1019.3 mb 0.00 in0.0 mm 0.00 in0.0 mm 0.00 in0.0 mm
07:48 AM 21.6°F-5.8°C 13.6°F-10.2°C 71% 2.9 mph NNE4.7 kmh NNE 8.1 mph13.0 kmh 30.10 in1019.3 mb 0.00 in0.0 mm 0.00 in0.0 mm 0.00 in0.0 mm
07:53 AM 21.6°F-5.8°C 13.6°F-10.2°C 71% 2.9 mph NNE4.7 kmh NNE 10.1 mph16.3 kmh 30.10 in1019.3 mb 0.00 in0.0 mm 0.00 in0.0 mm 0.00 in0.0 mm
07:58 AM 21.7°F-5.7°C 13.8°F-10.1°C 71% 2.9 mph NE4.7 kmh NE 6.9 mph11.1 kmh 30.11 in1019.6 mb 0.00 in0.0 mm 0.00 in0.0 mm 0.00 in0.0 mm
08:03 AM 21.7°F-5.7°C 13.8°F-10.1°C 71% 2.9 mph N4.7 kmh N 8.0 mph12.9 kmh 30.11 in1019.6 mb 0.00 in0.0 mm 0.00 in0.0 mm 0.00 in0.0 mm
08:08 AM 21.9°F-5.6°C 14.0°F-10.0°C 71% 2.9 mph N4.7 kmh N 8.1 mph13.0 kmh 30.12 in1020.0 mb 0.00 in0.0 mm 0.00 in0.0 mm 0.00 in0.0 mm
08:13 AM 21.9°F-5.6°C 14.0°F-10.0°C 71% 2.0 mph NW3.2 kmh NW 6.0 mph9.7 kmh 30.12 in1020.0 mb 0.00 in0.0 mm 0.00 in0.0 mm 0.00 in0.0 mm
08:18 AM 21.9°F-5.6°C 13.6°F-10.2°C 70% 2.9 mph N4.7 kmh N 11.0 mph17.7 kmh 30.11 in1019.6 mb 0.00 in0.0 mm 0.00 in0.0 mm 0.00 in0.0 mm
08:23 AM 21.9°F-5.6°C 13.3°F-10.4°C 69% 4.0 mph NE6.4 kmh NE 12.1 mph19.5 kmh 30.11 in1019.6 mb 0.00 in0.0 mm 0.00 in0.0 mm 0.00 in0.0 mm
08:28 AM 21.9°F-5.6°C 13.3°F-10.4°C 69% 4.0 mph ENE6.4 kmh ENE 10.1 mph16.3 kmh 30.11 in1019.6 mb 0.00 in0.0 mm 0.00 in0.0 mm 0.00 in0.0 mm
08:33 AM 22.1°F-5.5°C 13.5°F-10.3°C 69% 2.9 mph N4.7 kmh N 8.9 mph14.3 kmh 30.12 in1020.0 mb 0.00 in0.0 mm 0.00 in0.0 mm 0.00 in0.0 mm
08:38 AM 22.3°F-5.4°C 13.6°F-10.2°C 69% 4.0 mph NNW6.4 kmh NNW 8.9 mph14.3 kmh 30.12 in1020.0 mb 0.00 in0.0 mm 0.00 in0.0 mm 0.00 in0.0 mm
08:43 AM 22.3°F-5.4°C 13.3°F-10.4°C 68% 4.0 mph NNE6.4 kmh NNE 8.9 mph14.3 kmh 30.12 in1020.0 mb 0.00 in0.0 mm 0.00 in0.0 mm 0.00 in0.0 mm
08:48 AM 22.3°F-5.4°C 12.9°F-10.6°C 67% 4.9 mph N7.9 kmh N 12.1 mph19.5 kmh 30.12 in1020.0 mb 0.00 in0.0 mm 0.00 in0.0 mm 0.00 in0.0 mm
08:53 AM 22.3°F-5.4°C 12.9°F-10.6°C 67% 4.9 mph NE7.9 kmh NE 12.1 mph19.5 kmh 30.12 in1020.0 mb 0.00 in0.0 mm 0.00 in0.0 mm 0.00 in0.0 mm
08:58 AM 22.5°F-5.3°C 13.5°F-10.3°C 68% 4.0 mph NNW6.4 kmh NNW 12.1 mph19.5 kmh 30.12 in1020.0 mb 0.00 in0.0 mm 0.00 in0.0 mm 0.00 in0.0 mm
09:03 AM 22.6°F-5.2°C 13.6°F-10.2°C 68% 4.0 mph WNW6.4 kmh WNW 8.9 mph14.3 kmh 30.13 in1020.3 mb 0.00 in0.0 mm 0.00 in0.0 mm 0.00 in0.0 mm
09:08 AM 22.8°F-5.1°C 13.8°F-10.1°C 68% 2.9 mph N4.7 kmh N 8.1 mph13.0 kmh 30.13 in1020.3 mb 0.00 in0.0 mm 0.00 in0.0 mm 0.00 in0.0 mm
09:13 AM 22.8°F-5.1°C 13.8°F-10.1°C 68% 2.9 mph N4.7 kmh N 9.0 mph14.5 kmh 30.13 in1020.3 mb 0.00 in0.0 mm 0.00 in0.0 mm 0.00 in0.0 mm
09:18 AM 23.2°F-4.9°C 14.2°F-9.9°C 68% 2.9 mph NW4.7 kmh NW 8.1 mph13.0 kmh 30.13 in1020.3 mb 0.00 in0.0 mm 0.00 in0.0 mm 0.00 in0.0 mm
09:24 AM 23.4°F-4.8°C 14.0°F-10.0°C 67% 2.9 mph NE4.7 kmh NE 6.9 mph11.1 kmh 30.13 in1020.3 mb 0.00 in0.0 mm 0.00 in0.0 mm 0.00 in0.0 mm
09:29 AM 23.4°F-4.8°C 13.6°F-10.2°C 66% 2.9 mph NE4.7 kmh NE 11.0 mph17.7 kmh 30.13 in1020.3 mb 0.00 in0.0 mm 0.00 in0.0 mm 0.00 in0.0 mm
09:34 AM 23.4°F-4.8°C 13.3°F-10.4°C 65% 2.9 mph N4.7 kmh N 8.9 mph14.3 kmh 30.13 in1020.3 mb 0.00 in0.0 mm 0.00 in0.0 mm 0.00 in0.0 mm
09:39 AM 23.0°F-5.0°C 12.6°F-10.8°C 64% 4.0 mph N6.4 kmh N 14.1 mph22.7 kmh 30.13 in1020.3 mb 0.00 in0.0 mm 0.00 in0.0 mm 0.00 in0.0 mm
09:44 AM 23.0°F-5.0°C 12.9°F-10.6°C 65% 4.0 mph N6.4 kmh N 10.1 mph16.3 kmh 30.13 in1020.3 mb 0.00 in0.0 mm 0.00 in0.0 mm 0.00 in0.0 mm
09:49 AM 23.4°F-4.8°C 13.6°F-10.2°C 66% 4.0 mph NE6.4 kmh NE 8.9 mph14.3 kmh 30.13 in1020.3 mb 0.00 in0.0 mm 0.00 in0.0 mm 0.00 in0.0 mm
09:54 AM 23.5°F-4.7°C 13.5°F-10.3°C 65% 2.9 mph NE4.7 kmh NE 6.9 mph11.1 kmh 30.13 in1020.3 mb 0.00 in0.0 mm 0.00 in0.0 mm 0.00 in0.0 mm
09:59 AM 23.4°F-4.8°C 12.2°F-11.0°C 62% 4.0 mph N6.4 kmh N 14.1 mph22.7 kmh 30.13 in1020.3 mb 0.00 in0.0 mm 0.00 in0.0 mm 0.00 in0.0 mm
10:04 AM 23.5°F-4.7°C 12.7°F-10.7°C 63% 4.0 mph NE6.4 kmh NE 8.9 mph14.3 kmh 30.13 in1020.3 mb 0.00 in0.0 mm 0.00 in0.0 mm 0.00 in0.0 mm
10:09 AM 23.7°F-4.6°C 13.3°F-10.4°C 64% 2.9 mph NW4.7 kmh NW 8.1 mph13.0 kmh 30.13 in1020.3 mb 0.00 in0.0 mm 0.00 in0.0 mm 0.00 in0.0 mm
10:14 AM 24.1°F-4.4°C 12.9°F-10.6°C 62% 2.9 mph NE4.7 kmh NE 14.0 mph22.5 kmh 30.13 in1020.3 mb 0.00 in0.0 mm 0.00 in0.0 mm 0.00 in0.0 mm
10:19 AM 24.1°F-4.4°C 12.9°F-10.6°C 62% 2.9 mph NW4.7 kmh NW 8.9 mph14.3 kmh 30.13 in1020.3 mb 0.00 in0.0 mm 0.00 in0.0 mm 0.00 in0.0 mm
10:24 AM 24.1°F-4.4°C 12.9°F-10.6°C 62% 4.0 mph ENE6.4 kmh ENE 8.1 mph13.0 kmh 30.13 in1020.3 mb 0.00 in0.0 mm 0.00 in0.0 mm 0.00 in0.0 mm
10:29 AM 24.1°F-4.4°C 12.9°F-10.6°C 62% 4.0 mph NW6.4 kmh NW 8.9 mph14.3 kmh 30.13 in1020.3 mb 0.00 in0.0 mm 0.00 in0.0 mm 0.00 in0.0 mm
10:34 AM 24.4°F-4.2°C 13.3°F-10.4°C 62% 2.9 mph N4.7 kmh N 6.0 mph9.7 kmh 30.14 in1020.7 mb 0.00 in0.0 mm 0.00 in0.0 mm 0.00 in0.0 mm
10:39 AM 24.4°F-4.2°C 12.9°F-10.6°C 61% 2.9 mph ENE4.7 kmh ENE 13.0 mph20.9 kmh 30.14 in1020.7 mb 0.00 in0.0 mm 0.00 in0.0 mm 0.00 in0.0 mm
10:44 AM 24.3°F-4.3°C 12.4°F-10.9°C 60% 4.9 mph NE7.9 kmh NE 11.0 mph17.7 kmh 30.14 in1020.7 mb 0.00 in0.0 mm 0.00 in0.0 mm 0.00 in0.0 mm
10:49 AM 24.6°F-4.1°C 13.1°F-10.5°C 61% 4.9 mph NE7.9 kmh NE 8.9 mph14.3 kmh 30.15 in1021.0 mb 0.00 in0.0 mm 0.00 in0.0 mm 0.00 in0.0 mm
10:54 AM 25.2°F-3.8°C 13.6°F-10.2°C 61% 4.0 mph NNE6.4 kmh NNE 11.0 mph17.7 kmh 30.15 in1021.0 mb 0.00 in0.0 mm 0.00 in0.0 mm 0.00 in0.0 mm
10:59 AM 25.0°F-3.9°C 12.4°F-10.9°C 58% 4.9 mph NNE7.9 kmh NNE 15.0 mph24.1 kmh 30.15 in1021.0 mb 0.00 in0.0 mm 0.00 in0.0 mm 0.00 in0.0 mm
11:04 AM 25.0°F-3.9°C 13.5°F-10.3°C 61% 4.9 mph NE7.9 kmh NE 15.0 mph24.1 kmh 30.15 in1021.0 mb 0.00 in0.0 mm 0.00 in0.0 mm 0.00 in0.0 mm
11:09 AM 25.2°F-3.8°C 13.6°F-10.2°C 61% 2.9 mph NE4.7 kmh NE 8.1 mph13.0 kmh 30.15 in1021.0 mb 0.00 in0.0 mm 0.00 in0.0 mm 0.00 in0.0 mm
11:14 AM 24.8°F-4.0°C 12.9°F-10.6°C 60% 2.9 mph N4.7 kmh N 8.9 mph14.3 kmh 30.15 in1021.0 mb 0.00 in0.0 mm 0.00 in0.0 mm 0.00 in0.0 mm
11:19 AM 24.6°F-4.1°C 13.1°F-10.5°C 61% 4.9 mph NE7.9 kmh NE 10.1 mph16.3 kmh 30.15 in1021.0 mb 0.00 in0.0 mm 0.00 in0.0 mm 0.00 in0.0 mm
11:24 AM 24.4°F-4.2°C 12.6°F-10.8°C 60% 4.9 mph N7.9 kmh N 12.1 mph19.5 kmh 30.15 in1021.0 mb 0.00 in0.0 mm 0.00 in0.0 mm 0.00 in0.0 mm
11:29 AM 24.6°F-4.1°C 13.1°F-10.5°C 61% 4.0 mph NW6.4 kmh NW 8.1 mph13.0 kmh 30.15 in1021.0 mb 0.00 in0.0 mm 0.00 in0.0 mm 0.00 in0.0 mm
11:34 AM 24.8°F-4.0°C 12.6°F-10.8°C 59% 4.0 mph ENE6.4 kmh ENE 10.1 mph16.3 kmh 30.15 in1021.0 mb 0.00 in0.0 mm 0.00 in0.0 mm 0.00 in0.0 mm
11:39 AM 25.0°F-3.9°C 12.7°F-10.7°C 59% 4.0 mph NE6.4 kmh NE 12.1 mph19.5 kmh 30.15 in1021.0 mb 0.00 in0.0 mm 0.00 in0.0 mm 0.00 in0.0 mm
11:44 AM 24.8°F-4.0°C 12.9°F-10.6°C 60% 4.9 mph NNW7.9 kmh NNW 14.1 mph22.7 kmh 30.15 in1021.0 mb 0.00 in0.0 mm 0.00 in0.0 mm 0.00 in0.0 mm
11:49 AM 25.2°F-3.8°C 13.3°F-10.4°C 60% 4.0 mph NNW6.4 kmh NNW 8.9 mph14.3 kmh 30.15 in1021.0 mb 0.00 in0.0 mm 0.00 in0.0 mm 0.00 in0.0 mm
11:54 AM 25.0°F-3.9°C 12.4°F-10.9°C 58% 4.0 mph N6.4 kmh N 11.0 mph17.7 kmh 30.15 in1021.0 mb 0.00 in0.0 mm 0.00 in0.0 mm 0.00 in0.0 mm
11:59 AM 25.2°F-3.8°C 12.9°F-10.6°C 59% 4.0 mph NW6.4 kmh NW 8.1 mph13.0 kmh 30.15 in1021.0 mb 0.00 in0.0 mm 0.00 in0.0 mm 0.00 in0.0 mm
12:04 PM 25.2°F-3.8°C 12.9°F-10.6°C 59% 4.0 mph NE6.4 kmh NE 8.9 mph14.3 kmh 30.15 in1021.0 mb 0.00 in0.0 mm 0.00 in0.0 mm 0.00 in0.0 mm
12:09 PM 25.2°F-3.8°C 12.9°F-10.6°C 59% 4.0 mph N6.4 kmh N 11.0 mph17.7 kmh 30.16 in1021.3 mb 0.00 in0.0 mm 0.00 in0.0 mm 0.00 in0.0 mm
12:14 PM 25.3°F-3.7°C 13.5°F-10.3°C 60% 4.0 mph NNE6.4 kmh NNE 6.9 mph11.1 kmh 30.15 in1021.0 mb 0.00 in0.0 mm 0.00 in0.0 mm 0.00 in0.0 mm
12:19 PM 25.3°F-3.7°C 13.5°F-10.3°C 60% 4.0 mph NE6.4 kmh NE 11.0 mph17.7 kmh 30.14 in1020.7 mb 0.00 in0.0 mm 0.00 in0.0 mm 0.00 in0.0 mm
12:24 PM 25.3°F-3.7°C 12.6°F-10.8°C 58% 4.9 mph NE7.9 kmh NE 11.0 mph17.7 kmh 30.14 in1020.7 mb 0.00 in0.0 mm 0.00 in0.0 mm 0.00 in0.0 mm
12:29 PM 25.3°F-3.7°C 12.6°F-10.8°C 58% 4.9 mph N7.9 kmh N 12.1 mph19.5 kmh 30.14 in1020.7 mb 0.00 in0.0 mm 0.00 in0.0 mm 0.00 in0.0 mm
12:34 PM 25.3°F-3.7°C 12.2°F-11.0°C 57% 4.9 mph NE7.9 kmh NE 11.0 mph17.7 kmh 30.14 in1020.7 mb 0.00 in0.0 mm 0.00 in0.0 mm 0.00 in0.0 mm
12:39 PM 25.5°F-3.6°C 13.1°F-10.5°C 59% 4.0 mph NE6.4 kmh NE 8.9 mph14.3 kmh 30.14 in1020.7 mb 0.00 in0.0 mm 0.00 in0.0 mm 0.00 in0.0 mm
12:44 PM 25.5°F-3.6°C 12.4°F-10.9°C 57% 4.0 mph NE6.4 kmh NE 12.1 mph19.5 kmh 30.13 in1020.3 mb 0.00 in0.0 mm 0.00 in0.0 mm 0.00 in0.0 mm
12:49 PM 25.5°F-3.6°C 12.7°F-10.7°C 58% 4.9 mph NNW7.9 kmh NNW 11.0 mph17.7 kmh 30.14 in1020.7 mb 0.00 in0.0 mm 0.00 in0.0 mm 0.00 in0.0 mm
12:54 PM 25.5°F-3.6°C 13.1°F-10.5°C 59% 4.9 mph ENE7.9 kmh ENE 10.1 mph16.3 kmh 30.14 in1020.7 mb 0.00 in0.0 mm 0.00 in0.0 mm 0.00 in0.0 mm
12:59 PM 25.9°F-3.4°C 13.1°F-10.5°C 58% 4.0 mph NNE6.4 kmh NNE 6.9 mph11.1 kmh 30.14 in1020.7 mb 0.00 in0.0 mm 0.00 in0.0 mm 0.00 in0.0 mm
01:04 PM 25.9°F-3.4°C 12.7°F-10.7°C 57% 4.0 mph NE6.4 kmh NE 11.0 mph17.7 kmh 30.15 in1021.0 mb 0.00 in0.0 mm 0.00 in0.0 mm 0.00 in0.0 mm
01:09 PM 26.1°F-3.3°C 14.0°F-10.0°C 60% 2.9 mph NE4.7 kmh NE 6.9 mph11.1 kmh 30.15 in1021.0 mb 0.00 in0.0 mm 0.00 in0.0 mm 0.00 in0.0 mm
01:14 PM 26.1°F-3.3°C 13.6°F-10.2°C 59% 2.9 mph NNE4.7 kmh NNE 10.1 mph16.3 kmh 30.14 in1020.7 mb 0.00 in0.0 mm 0.00 in0.0 mm 0.00 in0.0 mm
01:19 PM 25.9°F-3.4°C 13.8°F-10.1°C 60% 4.0 mph WNW6.4 kmh WNW 10.1 mph16.3 kmh 30.14 in1020.7 mb 0.00 in0.0 mm 0.00 in0.0 mm 0.00 in0.0 mm
01:24 PM 25.9°F-3.4°C 13.5°F-10.3°C 59% 4.0 mph ENE6.4 kmh ENE 11.0 mph17.7 kmh 30.14 in1020.7 mb 0.00 in0.0 mm 0.00 in0.0 mm 0.00 in0.0 mm
01:29 PM 25.9°F-3.4°C 13.5°F-10.3°C 59% 4.0 mph N6.4 kmh N 10.1 mph16.3 kmh 30.12 in1020.0 mb 0.00 in0.0 mm 0.00 in0.0 mm 0.00 in0.0 mm
01:34 PM 25.9°F-3.4°C 12.7°F-10.7°C 57% 4.9 mph NE7.9 kmh NE 10.1 mph16.3 kmh 30.12 in1020.0 mb 0.00 in0.0 mm 0.00 in0.0 mm 0.00 in0.0 mm
01:39 PM 26.1°F-3.3°C 13.3°F-10.4°C 58% 4.0 mph NE6.4 kmh NE 6.9 mph11.1 kmh 30.13 in1020.3 mb 0.00 in0.0 mm 0.00 in0.0 mm 0.00 in0.0 mm
01:44 PM 26.4°F-3.1°C 13.3°F-10.4°C 57% 2.9 mph N4.7 kmh N 8.9 mph14.3 kmh 30.14 in1020.7 mb 0.00 in0.0 mm 0.00 in0.0 mm 0.00 in0.0 mm
01:49 PM 26.4°F-3.1°C 13.3°F-10.4°C 57% 4.0 mph NNW6.4 kmh NNW 10.1 mph16.3 kmh 30.14 in1020.7 mb 0.00 in0.0 mm 0.00 in0.0 mm 0.00 in0.0 mm
01:54 PM 26.6°F-3.0°C 13.8°F-10.1°C 58% 4.0 mph NNE6.4 kmh NNE 11.0 mph17.7 kmh 30.14 in1020.7 mb 0.00 in0.0 mm 0.00 in0.0 mm 0.00 in0.0 mm
01:59 PM 26.4°F-3.1°C 14.0°F-10.0°C 59% 4.0 mph WNW6.4 kmh WNW 11.0 mph17.7 kmh 30.14 in1020.7 mb 0.00 in0.0 mm 0.00 in0.0 mm 0.00 in0.0 mm
02:04 PM 26.2°F-3.2°C 13.5°F-10.3°C 58% 4.9 mph N7.9 kmh N 13.0 mph20.9 kmh 30.14 in1020.7 mb 0.00 in0.0 mm 0.00 in0.0 mm 0.00 in0.0 mm
02:09 PM 26.1°F-3.3°C 13.3°F-10.4°C 58% 4.9 mph N7.9 kmh N 10.1 mph16.3 kmh 30.14 in1020.7 mb 0.00 in0.0 mm 0.00 in0.0 mm 0.00 in0.0 mm
02:14 PM 26.1°F-3.3°C 13.3°F-10.4°C 58% 4.9 mph N7.9 kmh N 13.0 mph20.9 kmh 30.14 in1020.7 mb 0.00 in0.0 mm 0.00 in0.0 mm 0.00 in0.0 mm
02:19 PM 26.2°F-3.2°C 14.2°F-9.9°C 60% 4.0 mph N6.4 kmh N 6.0 mph9.7 kmh 30.14 in1020.7 mb 0.00 in0.0 mm 0.00 in0.0 mm 0.00 in0.0 mm
02:24 PM 26.1°F-3.3°C 14.0°F-10.0°C 60% 2.9 mph N4.7 kmh N 11.0 mph17.7 kmh 30.14 in1020.7 mb 0.00 in0.0 mm 0.00 in0.0 mm 0.00 in0.0 mm
02:29 PM 25.9°F-3.4°C 13.8°F-10.1°C 60% 4.9 mph NE7.9 kmh NE 13.0 mph20.9 kmh 30.14 in1020.7 mb 0.00 in0.0 mm 0.00 in0.0 mm 0.00 in0.0 mm
02:34 PM 25.9°F-3.4°C 14.4°F-9.8°C 61% 4.0 mph NNE6.4 kmh NNE 8.1 mph13.0 kmh 30.15 in1021.0 mb 0.00 in0.0 mm 0.00 in0.0 mm 0.00 in0.0 mm
02:39 PM 25.9°F-3.4°C 14.4°F-9.8°C 61% 4.0 mph NW6.4 kmh NW 13.0 mph20.9 kmh 30.15 in1021.0 mb 0.00 in0.0 mm 0.00 in0.0 mm 0.00 in0.0 mm
02:44 PM 25.9°F-3.4°C 14.4°F-9.8°C 61% 4.9 mph N7.9 kmh N 12.1 mph19.5 kmh 30.15 in1021.0 mb 0.00 in0.0 mm 0.00 in0.0 mm 0.00 in0.0 mm
02:49 PM 26.1°F-3.3°C 14.5°F-9.7°C 61% 4.9 mph NE7.9 kmh NE 11.0 mph17.7 kmh 30.15 in1021.0 mb 0.00 in0.0 mm 0.00 in0.0 mm 0.00 in0.0 mm
02:54 PM 25.9°F-3.4°C 14.4°F-9.8°C 61% 4.0 mph N6.4 kmh N 8.9 mph14.3 kmh 30.16 in1021.3 mb 0.00 in0.0 mm 0.00 in0.0 mm 0.00 in0.0 mm
02:59 PM 25.9°F-3.4°C 14.4°F-9.8°C 61% 4.0 mph N6.4 kmh N 10.1 mph16.3 kmh 30.16 in1021.3 mb 0.00 in0.0 mm 0.00 in0.0 mm 0.00 in0.0 mm
03:04 PM 25.9°F-3.4°C 14.4°F-9.8°C 61% 2.9 mph NW4.7 kmh NW 13.0 mph20.9 kmh 30.16 in1021.3 mb 0.00 in0.0 mm 0.00 in0.0 mm 0.00 in0.0 mm
03:09 PM 25.7°F-3.5°C 13.3°F-10.4°C 59% 4.0 mph N6.4 kmh N 13.0 mph20.9 kmh 30.16 in1021.3 mb 0.00 in0.0 mm 0.00 in0.0 mm 0.00 in0.0 mm
03:14 PM 25.3°F-3.7°C 12.2°F-11.0°C 57% 4.9 mph NE7.9 kmh NE 11.0 mph17.7 kmh 30.15 in1021.0 mb 0.00 in0.0 mm 0.00 in0.0 mm 0.00 in0.0 mm
03:19 PM 25.3°F-3.7°C 12.6°F-10.8°C 58% 4.0 mph NNE6.4 kmh NNE 12.0 mph19.3 kmh 30.15 in1021.0 mb 0.00 in0.0 mm 0.00 in0.0 mm 0.00 in0.0 mm
03:24 PM 25.3°F-3.7°C 12.6°F-10.8°C 58% 4.0 mph NE6.4 kmh NE 13.0 mph20.9 kmh 30.16 in1021.3 mb 0.00 in0.0 mm 0.00 in0.0 mm 0.00 in0.0 mm
03:29 PM 25.3°F-3.7°C 12.6°F-10.8°C 58% 4.0 mph NNE6.4 kmh NNE 10.1 mph16.3 kmh 30.15 in1021.0 mb 0.00 in0.0 mm 0.00 in0.0 mm 0.00 in0.0 mm
03:34 PM 25.2°F-3.8°C 11.7°F-11.3°C 56% 4.0 mph NNE6.4 kmh NNE 10.1 mph16.3 kmh 30.15 in1021.0 mb 0.00 in0.0 mm 0.00 in0.0 mm 0.00 in0.0 mm
03:39 PM 25.2°F-3.8°C 12.4°F-10.9°C 58% 4.9 mph NNE7.9 kmh NNE 11.0 mph17.7 kmh 30.16 in1021.3 mb 0.00 in0.0 mm 0.00 in0.0 mm 0.00 in0.0 mm
03:44 PM 25.2°F-3.8°C 12.4°F-10.9°C 58% 4.0 mph N6.4 kmh N 10.1 mph16.3 kmh 30.16 in1021.3 mb 0.00 in0.0 mm 0.00 in0.0 mm 0.00 in0.0 mm
03:49 PM 25.2°F-3.8°C 12.4°F-10.9°C 58% 4.0 mph NE6.4 kmh NE 10.1 mph16.3 kmh 30.16 in1021.3 mb 0.00 in0.0 mm 0.00 in0.0 mm 0.00 in0.0 mm
03:54 PM 25.3°F-3.7°C 13.1°F-10.5°C 59% 2.9 mph NNE4.7 kmh NNE 11.0 mph17.7 kmh 30.16 in1021.3 mb 0.00 in0.0 mm 0.00 in0.0 mm 0.00 in0.0 mm
03:59 PM 25.2°F-3.8°C 12.4°F-10.9°C 58% 2.9 mph N4.7 kmh N 11.0 mph17.7 kmh 30.16 in1021.3 mb 0.00 in0.0 mm 0.00 in0.0 mm 0.00 in0.0 mm
04:04 PM 25.0°F-3.9°C 13.1°F-10.5°C 60% 2.9 mph NE4.7 kmh NE 13.0 mph20.9 kmh 30.16 in1021.3 mb 0.00 in0.0 mm 0.00 in0.0 mm 0.00 in0.0 mm
04:09 PM 25.0°F-3.9°C 12.4°F-10.9°C 58% 4.0 mph N6.4 kmh N 10.1 mph16.3 kmh 30.16 in1021.3 mb 0.00 in0.0 mm 0.00 in0.0 mm 0.00 in0.0 mm
04:14 PM 24.8°F-4.0°C 12.6°F-10.8°C 59% 4.0 mph NNE6.4 kmh NNE 11.0 mph17.7 kmh 30.16 in1021.3 mb 0.00 in0.0 mm 0.00 in0.0 mm 0.00 in0.0 mm
04:19 PM 25.0°F-3.9°C 13.1°F-10.5°C 60% 4.0 mph N6.4 kmh N 8.9 mph14.3 kmh 30.17 in1021.7 mb 0.00 in0.0 mm 0.00 in0.0 mm 0.00 in0.0 mm
04:24 PM 25.0°F-3.9°C 13.1°F-10.5°C 60% 2.9 mph NE4.7 kmh NE 4.9 mph7.9 kmh 30.17 in1021.7 mb 0.00 in0.0 mm 0.00 in0.0 mm 0.00 in0.0 mm
04:29 PM 24.8°F-4.0°C 13.3°F-10.4°C 61% 2.9 mph N4.7 kmh N 10.1 mph16.3 kmh 30.17 in1021.7 mb 0.00 in0.0 mm 0.00 in0.0 mm 0.00 in0.0 mm
04:34 PM 24.6°F-4.1°C 13.1°F-10.5°C 61% 2.9 mph NNW4.7 kmh NNW 8.1 mph13.0 kmh 30.17 in1021.7 mb 0.00 in0.0 mm 0.00 in0.0 mm 0.00 in0.0 mm
04:39 PM 24.6°F-4.1°C 13.1°F-10.5°C 61% 4.0 mph N6.4 kmh N 11.0 mph17.7 kmh 30.17 in1021.7 mb 0.00 in0.0 mm 0.00 in0.0 mm 0.00 in0.0 mm
04:44 PM 24.4°F-4.2°C 13.3°F-10.4°C 62% 4.0 mph NE6.4 kmh NE 8.1 mph13.0 kmh 30.17 in1021.7 mb 0.00 in0.0 mm 0.00 in0.0 mm 0.00 in0.0 mm
04:49 PM 24.4°F-4.2°C 12.9°F-10.6°C 61% 4.0 mph NW6.4 kmh NW 9.0 mph14.5 kmh 30.17 in1021.7 mb 0.00 in0.0 mm 0.00 in0.0 mm 0.00 in0.0 mm
04:54 PM 24.3°F-4.3°C 13.1°F-10.5°C 62% 4.0 mph N6.4 kmh N 8.9 mph14.3 kmh 30.17 in1021.7 mb 0.00 in0.0 mm 0.00 in0.0 mm 0.00 in0.0 mm
04:59 PM 24.3°F-4.3°C 13.5°F-10.3°C 63% 2.9 mph NW4.7 kmh NW 6.0 mph9.7 kmh 30.17 in1021.7 mb 0.00 in0.0 mm 0.00 in0.0 mm 0.00 in0.0 mm
05:04 PM 24.1°F-4.4°C 12.9°F-10.6°C 62% 2.9 mph ENE4.7 kmh ENE 14.1 mph22.7 kmh 30.18 in1022.0 mb 0.00 in0.0 mm 0.00 in0.0 mm 0.00 in0.0 mm
05:09 PM 24.1°F-4.4°C 13.3°F-10.4°C 63% 2.9 mph 4.7 kmh 6.9 mph11.1 kmh 30.18 in1022.0 mb 0.00 in0.0 mm 0.00 in0.0 mm 0.00 in0.0 mm
05:14 PM 23.9°F-4.5°C 12.7°F-10.7°C 62% 2.9 mph NE4.7 kmh NE 8.9 mph14.3 kmh 30.18 in1022.0 mb 0.00 in0.0 mm 0.00 in0.0 mm 0.00 in0.0 mm
05:19 PM 23.9°F-4.5°C 12.7°F-10.7°C 62% 2.9 mph NNE4.7 kmh NNE 10.1 mph16.3 kmh 30.18 in1022.0 mb 0.00 in0.0 mm 0.00 in0.0 mm 0.00 in0.0 mm
05:24 PM 23.7°F-4.6°C 12.9°F-10.6°C 63% 2.9 mph N4.7 kmh N 8.1 mph13.0 kmh 30.18 in1022.0 mb 0.00 in0.0 mm 0.00 in0.0 mm 0.00 in0.0 mm
05:29 PM 23.7°F-4.6°C 12.9°F-10.6°C 63% 2.9 mph NE4.7 kmh NE 6.0 mph9.7 kmh 30.18 in1022.0 mb 0.00 in0.0 mm 0.00 in0.0 mm 0.00 in0.0 mm
05:34 PM 23.7°F-4.6°C 12.9°F-10.6°C 63% 2.9 mph E4.7 kmh E 9.0 mph14.5 kmh 30.18 in1022.0 mb 0.00 in0.0 mm 0.00 in0.0 mm 0.00 in0.0 mm
05:39 PM 23.5°F-4.7°C 12.7°F-10.7°C 63% 2.9 mph NE4.7 kmh NE 8.1 mph13.0 kmh 30.18 in1022.0 mb 0.00 in0.0 mm 0.00 in0.0 mm 0.00 in0.0 mm
05:44 PM 23.5°F-4.7°C 12.7°F-10.7°C 63% 2.9 mph ENE4.7 kmh ENE 11.0 mph17.7 kmh 30.19 in1022.4 mb 0.00 in0.0 mm 0.00 in0.0 mm 0.00 in0.0 mm
05:49 PM 23.4°F-4.8°C 12.9°F-10.6°C 64% 2.9 mph NE4.7 kmh NE 8.9 mph14.3 kmh 30.18 in1022.0 mb 0.00 in0.0 mm 0.00 in0.0 mm 0.00 in0.0 mm
05:54 PM 23.4°F-4.8°C 12.6°F-10.8°C 63% 2.9 mph NNE4.7 kmh NNE 8.1 mph13.0 kmh 30.19 in1022.4 mb 0.00 in0.0 mm 0.00 in0.0 mm 0.00 in0.0 mm
05:59 PM 23.2°F-4.9°C 12.7°F-10.7°C 64% 2.9 mph NNE4.7 kmh NNE 6.0 mph9.7 kmh 30.19 in1022.4 mb 0.00 in0.0 mm 0.00 in0.0 mm 0.00 in0.0 mm
06:04 PM 23.2°F-4.9°C 12.4°F-10.9°C 63% 2.0 mph N3.2 kmh N 8.9 mph14.3 kmh 30.20 in1022.7 mb 0.00 in0.0 mm 0.00 in0.0 mm 0.00 in0.0 mm
06:09 PM 23.2°F-4.9°C 12.4°F-10.9°C 63% 2.9 mph NNE4.7 kmh NNE 8.9 mph14.3 kmh 30.19 in1022.4 mb 0.00 in0.0 mm 0.00 in0.0 mm 0.00 in0.0 mm
06:14 PM 23.0°F-5.0°C 12.2°F-11.0°C 63% 2.9 mph E4.7 kmh E 6.9 mph11.1 kmh 30.19 in1022.4 mb 0.00 in0.0 mm 0.00 in0.0 mm 0.00 in0.0 mm
06:19 PM 23.0°F-5.0°C 12.6°F-10.8°C 64% 2.0 mph N3.2 kmh N 6.0 mph9.7 kmh 30.20 in1022.7 mb 0.00 in0.0 mm 0.00 in0.0 mm 0.00 in0.0 mm
06:24 PM 22.8°F-5.1°C 12.7°F-10.7°C 65% 2.0 mph N3.2 kmh N 6.9 mph11.1 kmh 30.19 in1022.4 mb 0.00 in0.0 mm 0.00 in0.0 mm 0.00 in0.0 mm
06:29 PM 22.8°F-5.1°C 12.2°F-11.0°C 63% 2.9 mph NE4.7 kmh NE 8.9 mph14.3 kmh 30.20 in1022.7 mb 0.00 in0.0 mm 0.00 in0.0 mm 0.00 in0.0 mm
06:34 PM 22.8°F-5.1°C 12.7°F-10.7°C 65% 2.9 mph NNE4.7 kmh NNE 6.9 mph11.1 kmh 30.19 in1022.4 mb 0.00 in0.0 mm 0.00 in0.0 mm 0.00 in0.0 mm
06:39 PM 22.6°F-5.2°C 12.4°F-10.9°C 64% 2.9 mph NE4.7 kmh NE 8.1 mph13.0 kmh 30.19 in1022.4 mb 0.00 in0.0 mm 0.00 in0.0 mm 0.00 in0.0 mm
06:44 PM 22.6°F-5.2°C 12.7°F-10.7°C 65% 4.0 mph NE6.4 kmh NE 9.0 mph14.5 kmh 30.18 in1022.0 mb 0.00 in0.0 mm 0.00 in0.0 mm 0.00 in0.0 mm
06:49 PM 22.5°F-5.3°C 12.6°F-10.8°C 65% 2.9 mph N4.7 kmh N 4.9 mph7.9 kmh 30.19 in1022.4 mb 0.00 in0.0 mm 0.00 in0.0 mm 0.00 in0.0 mm
06:54 PM 22.5°F-5.3°C 12.6°F-10.8°C 65% 2.0 mph NNE3.2 kmh NNE 6.9 mph11.1 kmh 30.20 in1022.7 mb 0.00 in0.0 mm 0.00 in0.0 mm 0.00 in0.0 mm
06:59 PM 22.3°F-5.4°C 12.4°F-10.9°C 65% 2.9 mph N4.7 kmh N 6.9 mph11.1 kmh 30.20 in1022.7 mb 0.00 in0.0 mm 0.00 in0.0 mm 0.00 in0.0 mm
07:04 PM 22.3°F-5.4°C 12.4°F-10.9°C 65% 2.0 mph N3.2 kmh N 8.1 mph13.0 kmh 30.19 in1022.4 mb 0.00 in0.0 mm 0.00 in0.0 mm 0.00 in0.0 mm
07:09 PM 22.3°F-5.4°C 12.7°F-10.7°C 66% 2.0 mph NNE3.2 kmh NNE 4.9 mph7.9 kmh 30.20 in1022.7 mb 0.00 in0.0 mm 0.00 in0.0 mm 0.00 in0.0 mm
07:14 PM 22.1°F-5.5°C 12.6°F-10.8°C 66% 2.0 mph N3.2 kmh N 6.9 mph11.1 kmh 30.20 in1022.7 mb 0.00 in0.0 mm 0.00 in0.0 mm 0.00 in0.0 mm
07:19 PM 21.9°F-5.6°C 12.4°F-10.9°C 66% 2.0 mph N3.2 kmh N 6.9 mph11.1 kmh 30.20 in1022.7 mb 0.00 in0.0 mm 0.00 in0.0 mm 0.00 in0.0 mm
07:25 PM 21.9°F-5.6°C 12.4°F-10.9°C 66% 2.9 mph NNW4.7 kmh NNW 6.0 mph9.7 kmh 30.20 in1022.7 mb 0.00 in0.0 mm 0.00 in0.0 mm 0.00 in0.0 mm
07:30 PM 21.9°F-5.6°C 12.6°F-10.8°C 67% 2.9 mph N4.7 kmh N 6.0 mph9.7 kmh 30.21 in1023.0 mb 0.00 in0.0 mm 0.00 in0.0 mm 0.00 in0.0 mm
07:35 PM 21.9°F-5.6°C 12.6°F-10.8°C 67% 2.0 mph N3.2 kmh N 7.0 mph11.3 kmh 30.21 in1023.0 mb 0.00 in0.0 mm 0.00 in0.0 mm 0.00 in0.0 mm
07:40 PM 21.9°F-5.6°C 12.6°F-10.8°C 67% 2.0 mph N3.2 kmh N 6.0 mph9.7 kmh 30.21 in1023.0 mb 0.00 in0.0 mm 0.00 in0.0 mm 0.00 in0.0 mm
07:45 PM 21.7°F-5.7°C 12.7°F-10.7°C 68% 2.0 mph N3.2 kmh N 6.0 mph9.7 kmh 30.21 in1023.0 mb 0.00 in0.0 mm 0.00 in0.0 mm 0.00 in0.0 mm
07:50 PM 21.7°F-5.7°C 12.7°F-10.7°C 68% 2.0 mph NNE3.2 kmh NNE 8.9 mph14.3 kmh 30.20 in1022.7 mb 0.00 in0.0 mm 0.00 in0.0 mm 0.00 in0.0 mm
07:55 PM 21.7°F-5.7°C 13.1°F-10.5°C 69% 2.0 mph N3.2 kmh N 4.9 mph7.9 kmh 30.20 in1022.7 mb 0.00 in0.0 mm 0.00 in0.0 mm 0.00 in0.0 mm
08:00 PM 21.6°F-5.8°C 12.9°F-10.6°C 69% 0.9 mph N1.4 kmh N 2.9 mph4.7 kmh 30.20 in1022.7 mb 0.00 in0.0 mm 0.00 in0.0 mm 0.00 in0.0 mm
08:05 PM 21.6°F-5.8°C 12.9°F-10.6°C 69% 0.9 mph NNW1.4 kmh NNW 4.9 mph7.9 kmh 30.20 in1022.7 mb 0.00 in0.0 mm 0.00 in0.0 mm 0.00 in0.0 mm
08:10 PM 21.6°F-5.8°C 12.9°F-10.6°C 69% 0.9 mph N1.4 kmh N 4.0 mph6.4 kmh 30.20 in1022.7 mb 0.00 in0.0 mm 0.00 in0.0 mm 0.00 in0.0 mm
08:15 PM 21.6°F-5.8°C 12.9°F-10.6°C 69% 0.9 mph N1.4 kmh N 4.9 mph7.9 kmh 30.20 in1022.7 mb 0.00 in0.0 mm 0.00 in0.0 mm 0.00 in0.0 mm
08:20 PM 21.6°F-5.8°C 12.9°F-10.6°C 69% 0.9 mph NNE1.4 kmh NNE 4.9 mph7.9 kmh 30.21 in1023.0 mb 0.00 in0.0 mm 0.00 in0.0 mm 0.00 in0.0 mm
08:25 PM 21.4°F-5.9°C 12.7°F-10.7°C 69% 2.0 mph N3.2 kmh N 6.0 mph9.7 kmh 30.21 in1023.0 mb 0.00 in0.0 mm 0.00 in0.0 mm 0.00 in0.0 mm
08:30 PM 21.4°F-5.9°C 12.7°F-10.7°C 69% 2.0 mph NNE3.2 kmh NNE 6.0 mph9.7 kmh 30.21 in1023.0 mb 0.00 in0.0 mm 0.00 in0.0 mm 0.00 in0.0 mm
08:35 PM 21.4°F-5.9°C 12.7°F-10.7°C 69% 2.0 mph NE3.2 kmh NE 2.9 mph4.7 kmh 30.22 in1023.4 mb 0.00 in0.0 mm 0.00 in0.0 mm 0.00 in0.0 mm
08:40 PM 21.4°F-5.9°C 12.7°F-10.7°C 69% 0.9 mph N1.4 kmh N 4.0 mph6.4 kmh 30.21 in1023.0 mb 0.00 in0.0 mm 0.00 in0.0 mm 0.00 in0.0 mm
08:45 PM 21.4°F-5.9°C 13.1°F-10.5°C 70% 0.9 mph NNE1.4 kmh NNE 2.9 mph4.7 kmh 30.21 in1023.0 mb 0.00 in0.0 mm 0.00 in0.0 mm 0.00 in0.0 mm
08:50 PM 21.2°F-6.0°C 12.9°F-10.6°C 70% 0.9 mph N1.4 kmh N 6.0 mph9.7 kmh 30.21 in1023.0 mb 0.00 in0.0 mm 0.00 in0.0 mm 0.00 in0.0 mm
08:55 PM 21.0°F-6.1°C 12.4°F-10.9°C 69% 0.9 mph N1.4 kmh N 4.9 mph7.9 kmh 30.21 in1023.0 mb 0.00 in0.0 mm 0.00 in0.0 mm 0.00 in0.0 mm
09:00 PM 21.0°F-6.1°C 12.7°F-10.7°C 70% 0.9 mph NE1.4 kmh NE 4.0 mph6.4 kmh 30.21 in1023.0 mb 0.00 in0.0 mm 0.00 in0.0 mm 0.00 in0.0 mm
09:05 PM 21.0°F-6.1°C 12.7°F-10.7°C 70% 0.9 mph N1.4 kmh N 4.0 mph6.4 kmh 30.21 in1023.0 mb 0.00 in0.0 mm 0.00 in0.0 mm 0.00 in0.0 mm
09:10 PM 21.0°F-6.1°C 13.1°F-10.5°C 71% 0.9 mph N1.4 kmh N 2.9 mph4.7 kmh 30.22 in1023.4 mb 0.00 in0.0 mm 0.00 in0.0 mm 0.00 in0.0 mm
09:15 PM 21.0°F-6.1°C 13.1°F-10.5°C 71% Calm Calm 4.9 mph7.9 kmh 30.23 in1023.7 mb 0.00 in0.0 mm 0.00 in0.0 mm 0.00 in0.0 mm
09:20 PM 21.0°F-6.1°C 13.1°F-10.5°C 71% Calm Calm 2.0 mph3.2 kmh 30.21 in1023.0 mb 0.00 in0.0 mm 0.00 in0.0 mm 0.00 in0.0 mm
09:25 PM 20.8°F-6.2°C 12.9°F-10.6°C 71% 0.9 mph ENE1.4 kmh ENE 6.0 mph9.7 kmh 30.21 in1023.0 mb 0.00 in0.0 mm 0.00 in0.0 mm 0.00 in0.0 mm
09:30 PM 20.8°F-6.2°C 12.9°F-10.6°C 71% 0.9 mph N1.4 kmh N 2.0 mph3.2 kmh 30.21 in1023.0 mb 0.00 in0.0 mm 0.00 in0.0 mm 0.00 in0.0 mm
09:35 PM 20.8°F-6.2°C 12.6°F-10.8°C 70% 0.9 mph N1.4 kmh N 4.9 mph7.9 kmh 30.22 in1023.4 mb 0.00 in0.0 mm 0.00 in0.0 mm 0.00 in0.0 mm
09:40 PM 20.8°F-6.2°C 12.6°F-10.8°C 70% 0.9 mph NNE1.4 kmh NNE 6.0 mph9.7 kmh 30.22 in1023.4 mb 0.00 in0.0 mm 0.00 in0.0 mm 0.00 in0.0 mm
09:45 PM 20.8°F-6.2°C 12.6°F-10.8°C 70% 2.0 mph NNE3.2 kmh NNE 6.0 mph9.7 kmh 30.22 in1023.4 mb 0.00 in0.0 mm 0.00 in0.0 mm 0.00 in0.0 mm
09:50 PM 20.8°F-6.2°C 12.9°F-10.6°C 71% 2.0 mph NNE3.2 kmh NNE 9.0 mph14.5 kmh 30.22 in1023.4 mb 0.00 in0.0 mm 0.00 in0.0 mm 0.00 in0.0 mm
09:55 PM 20.7°F-6.3°C 12.7°F-10.7°C 71% 2.9 mph NE4.7 kmh NE 6.9 mph11.1 kmh 30.22 in1023.4 mb 0.00 in0.0 mm 0.00 in0.0 mm 0.00 in0.0 mm
10:00 PM 20.7°F-6.3°C 12.7°F-10.7°C 71% 2.0 mph NNE3.2 kmh NNE 4.9 mph7.9 kmh 30.22 in1023.4 mb 0.00 in0.0 mm 0.00 in0.0 mm 0.00 in0.0 mm
10:05 PM 20.5°F-6.4°C 12.6°F-10.8°C 71% 2.0 mph NNE3.2 kmh NNE 8.1 mph13.0 kmh 30.22 in1023.4 mb 0.00 in0.0 mm 0.00 in0.0 mm 0.00 in0.0 mm
10:10 PM 20.5°F-6.4°C 12.9°F-10.6°C 72% 0.9 mph NNE1.4 kmh NNE 4.9 mph7.9 kmh 30.21 in1023.0 mb 0.00 in0.0 mm 0.00 in0.0 mm 0.00 in0.0 mm
10:15 PM 20.1°F-6.6°C 12.2°F-11.0°C 71% 0.9 mph NNE1.4 kmh NNE 6.0 mph9.7 kmh 30.21 in1023.0 mb 0.00 in0.0 mm 0.00 in0.0 mm 0.00 in0.0 mm
10:20 PM 20.1°F-6.6°C 12.6°F-10.8°C 72% 0.9 mph N1.4 kmh N 2.0 mph3.2 kmh 30.21 in1023.0 mb 0.00 in0.0 mm 0.00 in0.0 mm 0.00 in0.0 mm
10:25 PM 20.1°F-6.6°C 12.2°F-11.0°C 71% Calm Calm 4.0 mph6.4 kmh 30.21 in1023.0 mb 0.00 in0.0 mm 0.00 in0.0 mm 0.00 in0.0 mm
10:30 PM 20.1°F-6.6°C 12.2°F-11.0°C 71% 0.9 mph N1.4 kmh N 6.0 mph9.7 kmh 30.21 in1023.0 mb 0.00 in0.0 mm 0.00 in0.0 mm 0.00 in0.0 mm
10:35 PM 20.1°F-6.6°C 12.2°F-11.0°C 71% 0.9 mph N1.4 kmh N 2.9 mph4.7 kmh 30.21 in1023.0 mb 0.00 in0.0 mm 0.00 in0.0 mm 0.00 in0.0 mm
10:40 PM 20.1°F-6.6°C 12.2°F-11.0°C 71% 0.9 mph N1.4 kmh N 4.9 mph7.9 kmh 30.21 in1023.0 mb 0.00 in0.0 mm 0.00 in0.0 mm 0.00 in0.0 mm
10:45 PM 20.1°F-6.6°C 12.2°F-11.0°C 71% 0.9 mph NNE1.4 kmh NNE 4.9 mph7.9 kmh 30.22 in1023.4 mb 0.00 in0.0 mm 0.00 in0.0 mm 0.00 in0.0 mm
10:50 PM 20.1°F-6.6°C 12.2°F-11.0°C 71% 0.9 mph N1.4 kmh N 4.9 mph7.9 kmh 30.22 in1023.4 mb 0.00 in0.0 mm 0.00 in0.0 mm 0.00 in0.0 mm
10:55 PM 20.1°F-6.6°C 12.2°F-11.0°C 71% 2.0 mph N3.2 kmh N 6.9 mph11.1 kmh 30.22 in1023.4 mb 0.00 in0.0 mm 0.00 in0.0 mm 0.00 in0.0 mm
11:00 PM 20.1°F-6.6°C 12.2°F-11.0°C 71% 2.9 mph N4.7 kmh N 4.9 mph7.9 kmh 30.22 in1023.4 mb 0.00 in0.0 mm 0.00 in0.0 mm 0.00 in0.0 mm
11:05 PM 19.9°F-6.7°C 12.0°F-11.1°C 71% 0.9 mph NNE1.4 kmh NNE 4.0 mph6.4 kmh 30.23 in1023.7 mb 0.00 in0.0 mm 0.00 in0.0 mm 0.00 in0.0 mm
11:10 PM 19.9°F-6.7°C 12.0°F-11.1°C 71% 0.9 mph NNE1.4 kmh NNE 4.0 mph6.4 kmh 30.22 in1023.4 mb 0.00 in0.0 mm 0.00 in0.0 mm 0.00 in0.0 mm
11:15 PM 19.9°F-6.7°C 12.0°F-11.1°C 71% 2.0 mph N3.2 kmh N 6.0 mph9.7 kmh 30.22 in1023.4 mb 0.00 in0.0 mm 0.00 in0.0 mm 0.00 in0.0 mm
11:20 PM 19.9°F-6.7°C 12.0°F-11.1°C 71% 2.9 mph NNE4.7 kmh NNE 6.0 mph9.7 kmh 30.22 in1023.4 mb 0.00 in0.0 mm 0.00 in0.0 mm 0.00 in0.0 mm
11:25 PM 19.9°F-6.7°C 12.0°F-11.1°C 71% 2.9 mph NE4.7 kmh NE 6.0 mph9.7 kmh 30.22 in1023.4 mb 0.00 in0.0 mm 0.00 in0.0 mm 0.00 in0.0 mm
11:30 PM 19.9°F-6.7°C 12.0°F-11.1°C 71% 2.0 mph N3.2 kmh N 4.9 mph7.9 kmh 30.22 in1023.4 mb 0.00 in0.0 mm 0.00 in0.0 mm 0.00 in0.0 mm
11:35 PM 19.9°F-6.7°C 12.0°F-11.1°C 71% 2.0 mph NNW3.2 kmh NNW 8.0 mph12.9 kmh 30.23 in1023.7 mb 0.00 in0.0 mm 0.00 in0.0 mm 0.00 in0.0 mm
11:40 PM 19.9°F-6.7°C 12.0°F-11.1°C 71% 2.0 mph N3.2 kmh N 4.0 mph6.4 kmh 30.23 in1023.7 mb 0.00 in0.0 mm 0.00 in0.0 mm 0.00 in0.0 mm
11:45 PM 19.9°F-6.7°C 12.0°F-11.1°C 71% 2.0 mph NNW3.2 kmh NNW 4.9 mph7.9 kmh 30.22 in1023.4 mb 0.00 in0.0 mm 0.00 in0.0 mm 0.00 in0.0 mm
11:50 PM 19.9°F-6.7°C 12.0°F-11.1°C 71% 2.0 mph NNE3.2 kmh NNE 6.0 mph9.7 kmh 30.22 in1023.4 mb 0.00 in0.0 mm 0.00 in0.0 mm 0.00 in0.0 mm
11:55 PM 19.9°F-6.7°C 12.0°F-11.1°C 71% 2.0 mph NNW3.2 kmh NNW 4.0 mph6.4 kmh 30.23 in1023.7 mb 0.00 in0.0 mm 0.00 in0.0 mm 0.00 in0.0 mm